Lake Charles, LA

12:18 AM CDT on July 26, 2016 (GMT -0500)
NOS_NWLON | | Change Station

Elev 0 ft 30.22 °N, 93.22 °W | Updated 54 minutes ago

Clear
Clear
77 °F
Feels Like 75 °F
N
Wind Variable Wind from North
Gusts 0.0 mph

Today
High -- | Low -- °F
--% Chance of Precip.
Yesterday
High -- | Low -- °F
Precip. -- in
Pressure 29.92 in
Visibility 4.0 miles
Clouds Clear
Heat Index 75 °F
Dew Point Not available.
Humidity Not available.
Rainfall in
Snow Depth Not available.
6:28 AM 8:10 PM
Waning Gibbous, 58% visible
METAR KCWF 260515Z 35003KT 4SM CLR 23/23 A2992 RMK AO2 T02370233 PWINO
Pressure 29.92 in
Visibility 4.0 miles
Clouds Clear
Heat Index 75 °F
Dew Point Not available.
Humidity Not available.
Rainfall in
Snow Depth Not available.
6:28 AM 8:10 PM
Waning Gibbous, 58% visible
METAR KCWF 260515Z 35003KT 4SM CLR 23/23 A2992 RMK AO2 T02370233 PWINO

10-Day Weather Forecast

Almanac

Astronomy

Jul. 26, 2016 Rise Set
Actual Time
Civil Twilight
Nautical Twilight
Astronomical Twilight
Moon
Length of Visible Light
Length of Day
Tomorrow will be .
, % of the Moon is Illuminated

Today's Extremes

State Highs State Lows

Community

WunderPhotos

Upload Photos

1,927,538 photos uploaded!

WunderBlog® & News

Nearby

Air Quality

  Air Quality AQ Index Pollutant
Not available.

Snow Depth

Station Depth Elevation

Earthquake Activity

City Distance Mag. Time & Date
Minimum magnitude displayed is 2.5.

Coastal Water Temperatures

Place Temperature

Stations

Nearby Weather Stations

Station Location Temp. Windchill Dew Point Humidity Wind Precip. Elev Updated Type
                   

Watches & Warnings

There are currently no watches in effect.